sensor_id;sensor_type;location;lat;lon;timestamp;pressure;altitude;pressure_sealevel;temperature;humidity
71151;BME280;59071;42.138;24.768;2023-04-26T00:01:50;98712.47;;;14.64;80.77
71151;BME280;59071;42.138;24.768;2023-04-26T00:04:17;98703.78;;;14.25;81.25
71151;BME280;59071;42.138;24.768;2023-04-26T00:06:42;98705.41;;;14.26;81.18
71151;BME280;59071;42.138;24.768;2023-04-26T00:09:07;98702.78;;;13.82;84.78
71151;BME280;59071;42.138;24.768;2023-04-26T00:11:33;98702.38;;;14.17;82.59
71151;BME280;59071;42.138;24.768;2023-04-26T00:13:58;98699.53;;;14.02;81.70
71151;BME280;59071;42.138;24.768;2023-04-26T00:16:23;98702.94;;;13.97;82.72
71151;BME280;59071;42.138;24.768;2023-04-26T00:18:48;98698.44;;;13.76;84.09
71151;BME280;59071;42.138;24.768;2023-04-26T00:21:15;98692.53;;;13.96;83.94
71151;BME280;59071;42.138;24.768;2023-04-26T00:23:40;98684.13;;;14.14;83.04
71151;BME280;59071;42.138;24.768;2023-04-26T00:26:06;98683.88;;;13.66;84.45
71151;BME280;59071;42.138;24.768;2023-04-26T00:28:31;98683.16;;;13.71;84.91
71151;BME280;59071;42.138;24.768;2023-04-26T00:30:56;98682.63;;;13.74;85.08
71151;BME280;59071;42.138;24.768;2023-04-26T00:33:22;98681.88;;;14.28;83.05
71151;BME280;59071;42.138;24.768;2023-04-26T00:35:48;98669.91;;;14.08;82.58
71151;BME280;59071;42.138;24.768;2023-04-26T00:38:13;98674.53;;;13.91;82.13
71151;BME280;59071;42.138;24.768;2023-04-26T00:40:38;98659.13;;;13.76;83.08
71151;BME280;59071;42.138;24.768;2023-04-26T00:43:04;98665.63;;;13.58;85.33
71151;BME280;59071;42.138;24.768;2023-04-26T00:45:29;98659.47;;;14.34;80.18
71151;BME280;59071;42.138;24.768;2023-04-26T00:47:55;98647.78;;;13.91;81.26
71151;BME280;59071;42.138;24.768;2023-04-26T00:50:21;98645.75;;;13.76;82.00
71151;BME280;59071;42.138;24.768;2023-04-26T00:52:46;98634.03;;;13.77;83.03
71151;BME280;59071;42.138;24.768;2023-04-26T00:55:11;98639.06;;;14.01;82.38
71151;BME280;59071;42.138;24.768;2023-04-26T00:57:38;98642.00;;;14.26;79.38
71151;BME280;59071;42.138;24.768;2023-04-26T01:00:04;98638.47;;;13.94;81.13
71151;BME280;59071;42.138;24.768;2023-04-26T01:02:29;98631.41;;;13.82;82.61
71151;BME280;59071;42.138;24.768;2023-04-26T01:04:55;98630.66;;;13.65;83.36
71151;BME280;59071;42.138;24.768;2023-04-26T01:07:20;98639.16;;;14.38;79.40
71151;BME280;59071;42.138;24.768;2023-04-26T01:09:45;98643.94;;;14.36;78.65
71151;BME280;59071;42.138;24.768;2023-04-26T01:12:11;98639.97;;;14.12;79.31
71151;BME280;59071;42.138;24.768;2023-04-26T01:14:38;98631.81;;;13.96;79.17
71151;BME280;59071;42.138;24.768;2023-04-26T01:17:03;98628.91;;;14.03;79.72
71151;BME280;59071;42.138;24.768;2023-04-26T01:19:30;98632.00;;;14.17;77.11
71151;BME280;59071;42.138;24.768;2023-04-26T01:21:56;98641.50;;;13.75;78.84
71151;BME280;59071;42.138;24.768;2023-04-26T01:24:21;98638.56;;;13.77;79.00
71151;BME280;59071;42.138;24.768;2023-04-26T01:26:46;98644.50;;;13.84;78.76
71151;BME280;59071;42.138;24.768;2023-04-26T01:29:15;98639.66;;;14.35;76.53
71151;BME280;59071;42.138;24.768;2023-04-26T01:31:41;98644.22;;;14.07;76.93
71151;BME280;59071;42.138;24.768;2023-04-26T01:34:06;98633.06;;;13.61;77.83
71151;BME280;59071;42.138;24.768;2023-04-26T01:36:31;98629.69;;;13.49;78.98
71151;BME280;59071;42.138;24.768;2023-04-26T01:38:57;98632.75;;;13.58;79.36
71151;BME280;59071;42.138;24.768;2023-04-26T01:41:22;98629.84;;;14.46;75.14
71151;BME280;59071;42.138;24.768;2023-04-26T01:43:48;98625.06;;;13.88;76.10
71151;BME280;59071;42.138;24.768;2023-04-26T01:46:13;98612.38;;;13.79;76.47
71151;BME280;59071;42.138;24.768;2023-04-26T01:48:39;98611.75;;;13.94;75.83
71151;BME280;59071;42.138;24.768;2023-04-26T01:51:04;98606.53;;;14.09;75.35
71151;BME280;59071;42.138;24.768;2023-04-26T01:53:30;98603.84;;;14.41;72.77
71151;BME280;59071;42.138;24.768;2023-04-26T01:55:55;98614.34;;;13.88;75.22
71151;BME280;59071;42.138;24.768;2023-04-26T01:58:21;98611.84;;;13.33;78.09
71151;BME280;59071;42.138;24.768;2023-04-26T02:00:46;98614.25;;;13.12;77.38
71151;BME280;59071;42.138;24.768;2023-04-26T02:03:11;98607.13;;;13.18;77.13
71151;BME280;59071;42.138;24.768;2023-04-26T02:05:37;98615.63;;;13.81;74.21
71151;BME280;59071;42.138;24.768;2023-04-26T02:08:02;98619.13;;;13.37;74.99
71151;BME280;59071;42.138;24.768;2023-04-26T02:10:28;98613.69;;;13.10;75.03
71151;BME280;59071;42.138;24.768;2023-04-26T02:12:53;98621.94;;;13.08;75.04
71151;BME280;59071;42.138;24.768;2023-04-26T02:15:19;98615.59;;;13.32;72.90
71151;BME280;59071;42.138;24.768;2023-04-26T02:17:45;98621.06;;;13.03;73.25
71151;BME280;59071;42.138;24.768;2023-04-26T02:20:11;98626.19;;;13.26;72.12
71151;BME280;59071;42.138;24.768;2023-04-26T02:22:36;98624.56;;;13.03;73.32
71151;BME280;59071;42.138;24.768;2023-04-26T02:25:01;98627.81;;;12.88;73.71
71151;BME280;59071;42.138;24.768;2023-04-26T02:27:27;98625.59;;;13.41;72.91
71151;BME280;59071;42.138;24.768;2023-04-26T02:29:52;98627.25;;;13.69;70.24
71151;BME280;59071;42.138;24.768;2023-04-26T02:32:17;98632.53;;;13.64;69.89
71151;BME280;59071;42.138;24.768;2023-04-26T02:34:43;98630.63;;;13.38;71.58
71151;BME280;59071;42.138;24.768;2023-04-26T02:37:08;98635.28;;;13.69;71.18
71151;BME280;59071;42.138;24.768;2023-04-26T02:39:34;98618.22;;;14.35;68.15
71151;BME280;59071;42.138;24.768;2023-04-26T02:41:59;98623.13;;;14.11;68.18
71151;BME280;59071;42.138;24.768;2023-04-26T02:44:27;98625.19;;;13.77;69.32
71151;BME280;59071;42.138;24.768;2023-04-26T02:46:52;98629.22;;;13.79;69.73
71151;BME280;59071;42.138;24.768;2023-04-26T02:49:18;98639.69;;;13.59;70.86
71151;BME280;59071;42.138;24.768;2023-04-26T02:51:43;98639.03;;;13.96;70.27
71151;BME280;59071;42.138;24.768;2023-04-26T02:54:08;98643.28;;;13.69;70.44
71151;BME280;59071;42.138;24.768;2023-04-26T02:56:33;98643.47;;;13.63;71.44
71151;BME280;59071;42.138;24.768;2023-04-26T02:58:59;98645.72;;;13.27;73.24
71151;BME280;59071;42.138;24.768;2023-04-26T03:01:24;98651.31;;;13.47;73.40
71151;BME280;59071;42.138;24.768;2023-04-26T03:03:49;98644.81;;;13.87;72.36
71151;BME280;59071;42.138;24.768;2023-04-26T03:06:15;98643.72;;;13.83;73.08
71151;BME280;59071;42.138;24.768;2023-04-26T03:08:41;98641.44;;;13.70;73.37
71151;BME280;59071;42.138;24.768;2023-04-26T03:11:06;98633.09;;;13.66;74.16
71151;BME280;59071;42.138;24.768;2023-04-26T03:13:31;98627.34;;;13.53;75.99
71151;BME280;59071;42.138;24.768;2023-04-26T03:15:56;98629.31;;;13.89;75.04
71151;BME280;59071;42.138;24.768;2023-04-26T03:18:22;98626.00;;;14.04;73.04
71151;BME280;59071;42.138;24.768;2023-04-26T03:20:47;98621.72;;;14.03;73.28
71151;BME280;59071;42.138;24.768;2023-04-26T03:23:12;98624.53;;;13.64;74.84
71151;BME280;59071;42.138;24.768;2023-04-26T03:25:38;98623.63;;;13.81;74.43
71151;BME280;59071;42.138;24.768;2023-04-26T03:28:03;98616.09;;;13.78;75.05
71151;BME280;59071;42.138;24.768;2023-04-26T03:30:29;98618.63;;;14.17;73.32
71151;BME280;59071;42.138;24.768;2023-04-26T03:32:54;98625.06;;;13.88;74.26
71151;BME280;59071;42.138;24.768;2023-04-26T03:35:20;98625.75;;;13.79;73.92
71151;BME280;59071;42.138;24.768;2023-04-26T03:37:45;98638.41;;;13.61;75.28
71151;BME280;59071;42.138;24.768;2023-04-26T03:40:10;98635.66;;;13.56;74.64
71151;BME280;59071;42.138;24.768;2023-04-26T03:42:36;98647.00;;;14.18;72.37
71151;BME280;59071;42.138;24.768;2023-04-26T03:45:01;98653.06;;;13.81;73.26
71151;BME280;59071;42.138;24.768;2023-04-26T03:47:28;98656.31;;;13.39;75.20
71151;BME280;59071;42.138;24.768;2023-04-26T03:49:53;98655.44;;;13.16;76.62
71151;BME280;59071;42.138;24.768;2023-04-26T03:52:18;98658.91;;;12.95;77.85
71151;BME280;59071;42.138;24.768;2023-04-26T03:54:44;98661.59;;;13.56;77.06
71151;BME280;59071;42.138;24.768;2023-04-26T03:57:09;98671.34;;;13.67;75.08
71151;BME280;59071;42.138;24.768;2023-04-26T03:59:35;98664.69;;;13.47;77.32
71151;BME280;59071;42.138;24.768;2023-04-26T04:02:00;98669.09;;;13.37;76.49
71151;BME280;59071;42.138;24.768;2023-04-26T04:04:25;98667.56;;;13.24;76.91
71151;BME280;59071;42.138;24.768;2023-04-26T04:06:51;98668.59;;;13.23;77.27
71151;BME280;59071;42.138;24.768;2023-04-26T04:09:16;98673.25;;;13.94;76.00
71151;BME280;59071;42.138;24.768;2023-04-26T04:11:42;98669.03;;;13.76;73.48
71151;BME280;59071;42.138;24.768;2023-04-26T04:14:07;98670.38;;;13.34;75.37
71151;BME280;59071;42.138;24.768;2023-04-26T04:16:32;98658.97;;;13.39;75.67
71151;BME280;59071;42.138;24.768;2023-04-26T04:18:57;98665.50;;;13.48;75.36
71151;BME280;59071;42.138;24.768;2023-04-26T04:21:23;98660.88;;;14.15;73.53
71151;BME280;59071;42.138;24.768;2023-04-26T04:23:48;98666.19;;;14.10;72.24
71151;BME280;59071;42.138;24.768;2023-04-26T04:26:14;98674.28;;;14.47;73.71
71151;BME280;59071;42.138;24.768;2023-04-26T04:28:40;98665.47;;;15.27;69.96
71151;BME280;59071;42.138;24.768;2023-04-26T04:31:05;98659.78;;;15.13;68.20
71151;BME280;59071;42.138;24.768;2023-04-26T04:33:32;98666.16;;;15.54;66.61
71151;BME280;59071;42.138;24.768;2023-04-26T04:35:57;98665.72;;;15.78;66.36
71151;BME280;59071;42.138;24.768;2023-04-26T04:38:22;98664.84;;;15.72;65.77
71151;BME280;59071;42.138;24.768;2023-04-26T04:40:48;98672.81;;;15.47;66.89
71151;BME280;59071;42.138;24.768;2023-04-26T04:43:14;98668.38;;;15.78;65.12
71151;BME280;59071;42.138;24.768;2023-04-26T04:45:39;98670.84;;;15.85;64.52
71151;BME280;59071;42.138;24.768;2023-04-26T04:48:05;98665.41;;;15.69;64.02
71151;BME280;59071;42.138;24.768;2023-04-26T04:50:30;98668.47;;;15.98;64.88
71151;BME280;59071;42.138;24.768;2023-04-26T04:52:56;98663.16;;;16.55;62.33
71151;BME280;59071;42.138;24.768;2023-04-26T04:55:21;98669.34;;;16.96;61.43
71151;BME280;59071;42.138;24.768;2023-04-26T04:57:46;98666.09;;;16.64;61.67
71151;BME280;59071;42.138;24.768;2023-04-26T05:00:12;98669.53;;;17.26;60.65
71151;BME280;59071;42.138;24.768;2023-04-26T05:02:38;98671.38;;;17.41;60.77
71151;BME280;59071;42.138;24.768;2023-04-26T05:05:03;98670.25;;;17.52;60.19
71151;BME280;59071;42.138;24.768;2023-04-26T05:07:32;98681.28;;;18.10;57.16
71151;BME280;59071;42.138;24.768;2023-04-26T05:09:57;98676.56;;;18.31;56.68
71151;BME280;59071;42.138;24.768;2023-04-26T05:12:23;98673.81;;;18.76;54.76
71151;BME280;59071;42.138;24.768;2023-04-26T05:14:49;98674.38;;;18.73;54.88
71151;BME280;59071;42.138;24.768;2023-04-26T05:17:14;98673.28;;;19.32;52.94
71151;BME280;59071;42.138;24.768;2023-04-26T05:19:39;98671.50;;;18.93;53.58
71151;BME280;59071;42.138;24.768;2023-04-26T05:22:05;98664.28;;;19.42;52.85
71151;BME280;59071;42.138;24.768;2023-04-26T05:24:30;98661.09;;;20.02;51.34
71151;BME280;59071;42.138;24.768;2023-04-26T05:26:59;98663.94;;;19.92;50.64
71151;BME280;59071;42.138;24.768;2023-04-26T05:29:28;98656.53;;;20.55;49.68
71151;BME280;59071;42.138;24.768;2023-04-26T05:31:54;98658.88;;;20.75;48.54
71151;BME280;59071;42.138;24.768;2023-04-26T05:34:19;98653.94;;;20.96;47.91
71151;BME280;59071;42.138;24.768;2023-04-26T05:36:44;98658.31;;;20.92;48.24
71151;BME280;59071;42.138;24.768;2023-04-26T05:39:10;98662.75;;;21.43;47.70
71151;BME280;59071;42.138;24.768;2023-04-26T05:41:36;98655.72;;;20.87;48.27
71151;BME280;59071;42.138;24.768;2023-04-26T05:44:04;98657.66;;;21.00;48.75
71151;BME280;59071;42.138;24.768;2023-04-26T05:46:30;98666.69;;;20.25;49.48
71151;BME280;59071;42.138;24.768;2023-04-26T05:48:56;98660.16;;;20.97;48.75
71151;BME280;59071;42.138;24.768;2023-04-26T05:51:21;98652.94;;;21.34;46.96
71151;BME280;59071;42.138;24.768;2023-04-26T05:53:46;98662.97;;;21.61;47.51
71151;BME280;59071;42.138;24.768;2023-04-26T05:56:12;98663.50;;;21.63;47.54
71151;BME280;59071;42.138;24.768;2023-04-26T05:58:37;98663.53;;;21.85;46.53
71151;BME280;59071;42.138;24.768;2023-04-26T06:01:02;98665.84;;;21.09;46.38
71151;BME280;59071;42.138;24.768;2023-04-26T06:03:27;98666.47;;;21.34;46.93
71151;BME280;59071;42.138;24.768;2023-04-26T06:05:53;98668.50;;;21.42;45.51
71151;BME280;59071;42.138;24.768;2023-04-26T06:08:18;98664.69;;;21.71;44.69
71151;BME280;59071;42.138;24.768;2023-04-26T06:10:43;98659.06;;;21.25;44.86
71151;BME280;59071;42.138;24.768;2023-04-26T06:13:10;98658.38;;;20.73;45.22
71151;BME280;59071;42.138;24.768;2023-04-26T06:15:36;98658.28;;;20.64;45.64
71151;BME280;59071;42.138;24.768;2023-04-26T06:18:01;98665.28;;;21.12;45.17
71151;BME280;59071;42.138;24.768;2023-04-26T06:20:26;98651.47;;;21.69;43.35
71151;BME280;59071;42.138;24.768;2023-04-26T06:22:52;98659.25;;;21.43;43.58
71151;BME280;59071;42.138;24.768;2023-04-26T06:25:17;98656.59;;;20.82;44.78
71151;BME280;59071;42.138;24.768;2023-04-26T06:27:43;98659.97;;;20.60;46.02
71151;BME280;59071;42.138;24.768;2023-04-26T06:30:08;98664.06;;;21.04;45.16
71151;BME280;59071;42.138;24.768;2023-04-26T06:32:33;98660.84;;;21.02;44.80
71151;BME280;59071;42.138;24.768;2023-04-26T06:34:59;98656.41;;;20.79;45.01
71151;BME280;59071;42.138;24.768;2023-04-26T06:37:24;98661.28;;;21.09;44.64
71151;BME280;59071;42.138;24.768;2023-04-26T06:39:49;98658.78;;;20.66;44.95
71151;BME280;59071;42.138;24.768;2023-04-26T06:42:15;98655.94;;;21.04;44.67
71151;BME280;59071;42.138;24.768;2023-04-26T06:44:40;98662.50;;;20.84;44.97
71151;BME280;59071;42.138;24.768;2023-04-26T06:47:06;98657.28;;;21.48;44.45
71151;BME280;59071;42.138;24.768;2023-04-26T06:49:33;98661.03;;;22.03;42.84
71151;BME280;59071;42.138;24.768;2023-04-26T06:51:59;98654.88;;;21.19;44.09
71151;BME280;59071;42.138;24.768;2023-04-26T06:54:27;98657.94;;;21.13;45.02
71151;BME280;59071;42.138;24.768;2023-04-26T06:56:53;98661.97;;;21.29;45.00
71151;BME280;59071;42.138;24.768;2023-04-26T06:59:18;98659.69;;;21.36;44.58
71151;BME280;59071;42.138;24.768;2023-04-26T07:01:43;98659.53;;;21.00;45.60
71151;BME280;59071;42.138;24.768;2023-04-26T07:04:09;98659.78;;;21.31;44.93
71151;BME280;59071;42.138;24.768;2023-04-26T07:06:35;98651.03;;;21.34;44.52
71151;BME280;59071;42.138;24.768;2023-04-26T07:09:01;98668.09;;;22.13;43.43
71151;BME280;59071;42.138;24.768;2023-04-26T07:11:27;98667.34;;;22.35;42.40
71151;BME280;59071;42.138;24.768;2023-04-26T07:13:52;98669.75;;;22.81;42.37
71151;BME280;59071;42.138;24.768;2023-04-26T07:16:17;98670.06;;;22.35;43.17
71151;BME280;59071;42.138;24.768;2023-04-26T07:18:42;98666.09;;;21.68;43.32
71151;BME280;59071;42.138;24.768;2023-04-26T07:21:08;98667.28;;;21.20;43.16
71151;BME280;59071;42.138;24.768;2023-04-26T07:23:33;98674.28;;;21.91;43.18
71151;BME280;59071;42.138;24.768;2023-04-26T07:25:59;98685.91;;;22.41;42.39
71151;BME280;59071;42.138;24.768;2023-04-26T07:28:28;98673.13;;;23.18;41.70
71151;BME280;59071;42.138;24.768;2023-04-26T07:30:53;98671.34;;;23.54;40.04
71151;BME280;59071;42.138;24.768;2023-04-26T07:33:19;98671.69;;;23.61;39.99
71151;BME280;59071;42.138;24.768;2023-04-26T07:35:44;98678.97;;;23.43;39.88
71151;BME280;59071;42.138;24.768;2023-04-26T07:38:17;98673.31;;;22.91;39.46
71151;BME280;59071;42.138;24.768;2023-04-26T07:40:43;98670.81;;;23.34;39.45
71151;BME280;59071;42.138;24.768;2023-04-26T07:43:08;98681.97;;;23.81;39.08
71151;BME280;59071;42.138;24.768;2023-04-26T07:45:34;98678.97;;;23.92;39.08
71151;BME280;59071;42.138;24.768;2023-04-26T07:47:59;98683.28;;;23.93;38.71
71151;BME280;59071;42.138;24.768;2023-04-26T07:50:24;98684.88;;;23.36;39.19
71151;BME280;59071;42.138;24.768;2023-04-26T07:52:50;98678.19;;;23.91;38.28
71151;BME280;59071;42.138;24.768;2023-04-26T07:55:15;98678.97;;;24.00;37.51
71151;BME280;59071;42.138;24.768;2023-04-26T07:57:41;98684.25;;;24.06;37.09
71151;BME280;59071;42.138;24.768;2023-04-26T08:00:06;98684.44;;;23.52;37.78
71151;BME280;59071;42.138;24.768;2023-04-26T08:02:34;98675.69;;;23.64;37.04
71151;BME280;59071;42.138;24.768;2023-04-26T08:05:00;98673.97;;;23.76;36.32
71151;BME280;59071;42.138;24.768;2023-04-26T08:07:28;98673.03;;;23.01;38.15
71151;BME280;59071;42.138;24.768;2023-04-26T08:09:53;98673.41;;;23.57;37.67
71151;BME280;59071;42.138;24.768;2023-04-26T08:12:18;98676.47;;;23.55;37.85
71151;BME280;59071;42.138;24.768;2023-04-26T08:14:44;98675.47;;;24.17;36.92
71151;BME280;59071;42.138;24.768;2023-04-26T08:17:10;98666.66;;;24.64;36.14
71151;BME280;59071;42.138;24.768;2023-04-26T08:19:36;98669.06;;;24.13;35.94
71151;BME280;59071;42.138;24.768;2023-04-26T08:22:01;98668.09;;;25.26;34.54
71151;BME280;59071;42.138;24.768;2023-04-26T08:24:27;98665.72;;;25.16;34.56
71151;BME280;59071;42.138;24.768;2023-04-26T08:26:53;98658.69;;;24.15;34.85
71151;BME280;59071;42.138;24.768;2023-04-26T08:29:19;98661.41;;;23.40;37.46
71151;BME280;59071;42.138;24.768;2023-04-26T08:31:44;98658.66;;;23.80;36.87
71151;BME280;59071;42.138;24.768;2023-04-26T08:34:10;98651.72;;;23.66;36.90
71151;BME280;59071;42.138;24.768;2023-04-26T08:36:39;98651.81;;;24.35;35.49
71151;BME280;59071;42.138;24.768;2023-04-26T08:39:05;98644.00;;;24.98;36.38
71151;BME280;59071;42.138;24.768;2023-04-26T08:41:34;98648.91;;;25.52;34.01
71151;BME280;59071;42.138;24.768;2023-04-26T08:44:00;98655.28;;;25.86;33.10
71151;BME280;59071;42.138;24.768;2023-04-26T08:46:28;98646.25;;;24.96;33.21
71151;BME280;59071;42.138;24.768;2023-04-26T08:49:04;98647.47;;;24.43;33.54
71151;BME280;59071;42.138;24.768;2023-04-26T08:51:37;98643.66;;;25.09;33.43
71151;BME280;59071;42.138;24.768;2023-04-26T08:54:03;98643.47;;;25.23;33.04
71151;BME280;59071;42.138;24.768;2023-04-26T08:56:28;98639.06;;;25.69;32.44
71151;BME280;59071;42.138;24.768;2023-04-26T08:58:54;98635.59;;;25.60;33.07
71151;BME280;59071;42.138;24.768;2023-04-26T09:01:20;98638.19;;;25.77;32.39
71151;BME280;59071;42.138;24.768;2023-04-26T09:03:46;98632.34;;;25.36;33.46
71151;BME280;59071;42.138;24.768;2023-04-26T09:06:12;98633.09;;;25.46;33.08
71151;BME280;59071;42.138;24.768;2023-04-26T09:08:38;98638.03;;;25.23;33.09
71151;BME280;59071;42.138;24.768;2023-04-26T09:11:04;98630.56;;;25.41;32.40
71151;BME280;59071;42.138;24.768;2023-04-26T09:13:30;98628.66;;;24.94;32.29
71151;BME280;59071;42.138;24.768;2023-04-26T09:15:55;98625.38;;;24.71;32.71
71151;BME280;59071;42.138;24.768;2023-04-26T09:18:21;98628.22;;;24.83;32.84
71151;BME280;59071;42.138;24.768;2023-04-26T09:21:03;98638.66;;;25.11;31.28
71151;BME280;59071;42.138;24.768;2023-04-26T09:23:28;98622.69;;;24.62;31.01
71151;BME280;59071;42.138;24.768;2023-04-26T09:25:53;98625.00;;;24.90;30.12
71151;BME280;59071;42.138;24.768;2023-04-26T09:28:19;98616.97;;;25.02;30.62
71151;BME280;59071;42.138;24.768;2023-04-26T09:30:45;98625.50;;;25.30;31.26
71151;BME280;59071;42.138;24.768;2023-04-26T09:33:10;98623.34;;;24.15;31.82
71151;BME280;59071;42.138;24.768;2023-04-26T09:35:36;98614.47;;;25.18;31.32
71151;BME280;59071;42.138;24.768;2023-04-26T09:38:03;98624.59;;;25.09;31.26
71151;BME280;59071;42.138;24.768;2023-04-26T09:40:29;98622.53;;;25.44;30.69
71151;BME280;59071;42.138;24.768;2023-04-26T09:43:09;98616.72;;;24.69;31.81
71151;BME280;59071;42.138;24.768;2023-04-26T09:50:40;98617.34;;;25.30;30.97
71151;BME280;59071;42.138;24.768;2023-04-26T09:53:06;98614.31;;;24.85;32.40
71151;BME280;59071;42.138;24.768;2023-04-26T09:55:31;98609.88;;;24.63;32.42
71151;BME280;59071;42.138;24.768;2023-04-26T09:57:57;98613.25;;;24.42;32.09
71151;BME280;59071;42.138;24.768;2023-04-26T10:00:24;98612.38;;;24.85;32.07
71151;BME280;59071;42.138;24.768;2023-04-26T10:02:51;98608.66;;;25.58;30.83
71151;BME280;59071;42.138;24.768;2023-04-26T10:05:17;98606.13;;;26.04;30.80
71151;BME280;59071;42.138;24.768;2023-04-26T10:07:42;98599.53;;;25.84;31.43
71151;BME280;59071;42.138;24.768;2023-04-26T10:10:08;98598.84;;;26.08;30.82
71151;BME280;59071;42.138;24.768;2023-04-26T10:12:34;98599.38;;;25.80;31.86
71151;BME280;59071;42.138;24.768;2023-04-26T10:14:59;98591.41;;;25.24;32.56
71151;BME280;59071;42.138;24.768;2023-04-26T10:17:25;98590.34;;;25.67;32.42
71151;BME280;59071;42.138;24.768;2023-04-26T10:19:54;98562.41;;;25.28;32.71
71151;BME280;59071;42.138;24.768;2023-04-26T10:22:24;98587.75;;;24.73;32.94
71151;BME280;59071;42.138;24.768;2023-04-26T10:24:52;98580.03;;;24.92;33.01
71151;BME280;59071;42.138;24.768;2023-04-26T10:28:03;98584.22;;;25.49;31.74
71151;BME280;59071;42.138;24.768;2023-04-26T10:30:04;98571.03;;;24.45;32.54
71151;BME280;59071;42.138;24.768;2023-04-26T10:32:31;98581.66;;;25.23;32.04
71151;BME280;59071;42.138;24.768;2023-04-26T10:35:12;98587.34;;;25.81;30.98
71151;BME280;59071;42.138;24.768;2023-04-26T10:42:49;98577.38;;;23.18;34.42
71151;BME280;59071;42.138;24.768;2023-04-26T10:45:25;98584.03;;;23.87;33.23
71151;BME280;59071;42.138;24.768;2023-04-26T10:48:02;98584.75;;;23.43;33.72
71151;BME280;59071;42.138;24.768;2023-04-26T10:51:05;98580.63;;;22.35;36.25
71151;BME280;59071;42.138;24.768;2023-04-26T10:53:21;98577.53;;;22.05;37.61
71151;BME280;59071;42.138;24.768;2023-04-26T10:55:47;98584.94;;;22.67;36.60
71151;BME280;59071;42.138;24.768;2023-04-26T11:03:28;98592.94;;;22.18;37.22
71151;BME280;59071;42.138;24.768;2023-04-26T11:05:54;98585.41;;;21.56;38.20
71151;BME280;59071;42.138;24.768;2023-04-26T11:08:20;98592.63;;;21.47;38.46
71151;BME280;59071;42.138;24.768;2023-04-26T11:10:58;98586.78;;;21.67;38.05
71151;BME280;59071;42.138;24.768;2023-04-26T11:13:34;98588.00;;;21.61;38.05
71151;BME280;59071;42.138;24.768;2023-04-26T11:16:01;98592.97;;;21.04;39.63
71151;BME280;59071;42.138;24.768;2023-04-26T11:18:30;98594.56;;;20.58;40.86
71151;BME280;59071;42.138;24.768;2023-04-26T11:20:56;98596.44;;;19.73;42.93
71151;BME280;59071;42.138;24.768;2023-04-26T11:23:22;98598.22;;;20.48;41.74
71151;BME280;59071;42.138;24.768;2023-04-26T11:25:47;98600.72;;;19.93;42.87
71151;BME280;59071;42.138;24.768;2023-04-26T11:28:13;98594.44;;;20.49;41.50
71151;BME280;59071;42.138;24.768;2023-04-26T11:30:38;98602.50;;;19.84;43.05
71151;BME280;59071;42.138;24.768;2023-04-26T11:33:03;98596.75;;;20.23;41.84
71151;BME280;59071;42.138;24.768;2023-04-26T11:35:31;98582.06;;;20.29;41.82
71151;BME280;59071;42.138;24.768;2023-04-26T11:37:58;98600.00;;;19.87;41.90
71151;BME280;59071;42.138;24.768;2023-04-26T11:40:26;98596.47;;;20.25;41.68
71151;BME280;59071;42.138;24.768;2023-04-26T11:42:51;98598.28;;;20.29;40.89
71151;BME280;59071;42.138;24.768;2023-04-26T11:45:17;98602.31;;;20.32;40.73
71151;BME280;59071;42.138;24.768;2023-04-26T11:47:42;98604.34;;;20.21;40.81
71151;BME280;59071;42.138;24.768;2023-04-26T11:50:08;98617.38;;;20.00;39.77
71151;BME280;59071;42.138;24.768;2023-04-26T11:52:34;98618.91;;;19.87;40.39
71151;BME280;59071;42.138;24.768;2023-04-26T11:55:00;98616.13;;;19.73;40.55
71151;BME280;59071;42.138;24.768;2023-04-26T11:57:29;98628.50;;;19.56;40.07
71151;BME280;59071;42.138;24.768;2023-04-26T12:00:05;98622.72;;;19.19;41.27
71151;BME280;59071;42.138;24.768;2023-04-26T12:02:30;98627.00;;;18.96;42.12
71151;BME280;59071;42.138;24.768;2023-04-26T12:04:59;98622.13;;;18.98;42.74
71151;BME280;59071;42.138;24.768;2023-04-26T12:07:24;98632.59;;;19.29;42.29
71151;BME280;59071;42.138;24.768;2023-04-26T12:09:50;98632.69;;;19.43;41.98
71151;BME280;59071;42.138;24.768;2023-04-26T12:12:15;98636.41;;;19.47;41.73
71151;BME280;59071;42.138;24.768;2023-04-26T12:14:40;98637.44;;;19.75;44.17
71151;BME280;59071;42.138;24.768;2023-04-26T12:17:06;98643.50;;;19.86;46.13
71151;BME280;59071;42.138;24.768;2023-04-26T12:19:32;98641.66;;;19.81;47.17
71151;BME280;59071;42.138;24.768;2023-04-26T12:21:57;98639.56;;;19.97;47.31
71151;BME280;59071;42.138;24.768;2023-04-26T12:26:47;98636.41;;;18.69;50.22
71151;BME280;59071;42.138;24.768;2023-04-26T12:29:13;98636.28;;;18.50;50.91
71151;BME280;59071;42.138;24.768;2023-04-26T12:31:38;98629.69;;;18.38;52.03
71151;BME280;59071;42.138;24.768;2023-04-26T12:34:03;98629.91;;;18.07;51.58
71151;BME280;59071;42.138;24.768;2023-04-26T12:36:29;98631.16;;;18.54;51.18
71151;BME280;59071;42.138;24.768;2023-04-26T12:38:55;98630.09;;;19.57;48.62
71151;BME280;59071;42.138;24.768;2023-04-26T12:41:21;98633.06;;;19.98;48.09
71151;BME280;59071;42.138;24.768;2023-04-26T12:43:47;98631.03;;;19.90;46.47
71151;BME280;59071;42.138;24.768;2023-04-26T12:46:12;98627.44;;;19.95;45.00
71151;BME280;59071;42.138;24.768;2023-04-26T12:48:37;98619.06;;;19.53;46.47
71151;BME280;59071;42.138;24.768;2023-04-26T12:51:03;98627.72;;;20.12;46.10
71151;BME280;59071;42.138;24.768;2023-04-26T12:53:28;98625.00;;;20.31;45.91
71151;BME280;59071;42.138;24.768;2023-04-26T12:55:53;98619.00;;;20.34;45.21
71151;BME280;59071;42.138;24.768;2023-04-26T12:58:19;98622.47;;;20.86;44.35
71151;BME280;59071;42.138;24.768;2023-04-26T13:00:45;98626.25;;;20.72;44.59
71151;BME280;59071;42.138;24.768;2023-04-26T13:03:11;98626.59;;;21.12;44.81